Time;durP1;ratioP1;P1;durP2;ratioP2;P2;SDS_P1;SDS_P2;PMS_P1;PMS_P2;Temp;Humidity;BMP_temperature;BMP_pressure;BME280_temperature;BME280_humidity;BME280_pressure;Samples;Min_cycle;Max_cycle;Signal;HPM_P1;HPM_P2
2023/08/15 00:02:00;;;;;;;8.73;8.00;;;23.30;99.90;;;;;;5036318;28;20587;-66
2023/08/15 00:04:27;;;;;;;8.67;7.97;;;23.20;99.90;;;;;;5028047;28;20178;-66
2023/08/15 00:06:52;;;;;;;8.33;7.73;;;23.20;99.90;;;;;;5038001;28;20292;-66
2023/08/15 00:09:18;;;;;;;8.90;8.00;;;23.20;99.90;;;;;;5032859;28;20532;-66
2023/08/15 00:11:44;;;;;;;8.10;7.50;;;23.20;99.90;;;;;;5033854;28;20182;-66
2023/08/15 00:14:11;;;;;;;8.90;8.30;;;23.30;99.90;;;;;;5031844;28;20194;-66
2023/08/15 00:16:36;;;;;;;8.37;7.67;;;23.30;99.90;;;;;;5028968;28;20202;-66
2023/08/15 00:19:02;;;;;;;7.90;7.10;;;23.30;99.90;;;;;;5032090;28;20452;-66
2023/08/15 00:21:28;;;;;;;8.30;7.50;;;23.30;99.90;;;;;;5028711;28;20230;-66
2023/08/15 00:23:54;;;;;;;8.83;7.53;;;23.20;99.90;;;;;;5032742;28;20438;-66
2023/08/15 00:26:19;;;;;;;8.43;7.67;;;23.10;99.90;;;;;;5033497;28;20198;-66
2023/08/15 00:28:45;;;;;;;7.47;6.87;;;23.20;99.90;;;;;;5027493;28;20210;-66
2023/08/15 00:31:10;;;;;;;8.57;7.63;;;23.10;99.90;;;;;;5033394;28;20227;-66
2023/08/15 00:33:36;;;;;;;8.33;7.40;;;23.10;99.90;;;;;;5030624;28;20187;-66
2023/08/15 00:36:04;;;;;;;9.37;8.57;;;23.20;99.90;;;;;;5032713;28;20214;-66
2023/08/15 00:38:29;;;;;;;8.83;8.03;;;23.10;99.90;;;;;;5027141;28;20251;-66
2023/08/15 00:40:55;;;;;;;8.30;7.60;;;23.10;99.90;;;;;;5030002;28;20557;-66
2023/08/15 00:43:20;;;;;;;8.63;7.83;;;23.10;99.90;;;;;;5028853;28;20190;-66
2023/08/15 00:45:46;;;;;;;8.27;7.67;;;23.10;99.90;;;;;;5034426;28;20252;-66
2023/08/15 00:48:12;;;;;;;7.60;7.00;;;23.20;99.90;;;;;;5028603;28;20192;-66
2023/08/15 00:50:41;;;;;;;8.73;7.93;;;23.30;99.90;;;;;;5029530;28;20452;-66
2023/08/15 00:53:08;;;;;;;7.67;7.07;;;23.30;99.90;;;;;;5027684;28;20198;-66
2023/08/15 00:55:34;;;;;;;7.47;6.93;;;23.40;99.90;;;;;;5032123;28;20468;-66
2023/08/15 00:58:00;;;;;;;7.67;7.07;;;23.20;99.90;;;;;;5029278;28;20498;-66
2023/08/15 01:00:26;;;;;;;8.33;7.63;;;23.10;99.90;;;;;;5029788;28;20488;-66
2023/08/15 01:02:52;;;;;;;7.43;6.93;;;23.10;99.90;;;;;;5031041;28;20273;-66
2023/08/15 01:05:20;;;;;;;7.93;7.23;;;23.10;99.90;;;;;;5030948;28;20528;-66
2023/08/15 01:07:45;;;;;;;7.47;6.80;;;23.10;99.90;;;;;;5030451;28;20213;-66
2023/08/15 01:10:11;;;;;;;7.77;7.17;;;23.10;99.90;;;;;;5028441;28;20448;-66
2023/08/15 01:12:46;;;;;;;8.17;7.43;;;23.10;99.90;;;;;;5032478;28;20209;-66
2023/08/15 01:15:26;;;;;;;7.90;7.20;;;23.10;99.90;;;;;;5029824;28;20209;-66
2023/08/15 01:20:28;;;;;;;8.33;7.53;;;23.10;99.90;;;;;;5045292;28;20490;-79
2023/08/15 01:23:00;;;;;;;7.87;7.27;;;22.90;99.90;;;;;;5044274;28;20539;-79
2023/08/15 01:25:26;;;;;;;8.87;8.17;;;22.90;99.90;;;;;;5044331;28;21055;-79
2023/08/15 01:27:52;;;;;;;8.17;7.40;;;22.90;99.90;;;;;;5025206;28;20524;-79
2023/08/15 01:30:22;;;;;;;7.93;7.33;;;22.90;99.90;;;;;;5027913;28;20450;-79
2023/08/15 01:33:10;;;;;;;8.23;7.53;;;22.80;99.90;;;;;;5031644;28;20190;-82
2023/08/15 01:35:45;;;;;;;8.07;7.47;;;22.80;99.90;;;;;;5027303;28;20592;-79
2023/08/15 01:38:16;;;;;;;7.73;7.13;;;22.60;99.90;;;;;;5024107;28;20451;-79
2023/08/15 01:40:43;;;;;;;8.47;7.77;;;22.70;99.90;;;;;;5042854;28;20475;-79
2023/08/15 01:43:11;;;;;;;8.57;7.77;;;22.60;99.90;;;;;;5024532;28;20948;-79
2023/08/15 01:45:37;;;;;;;8.27;7.67;;;22.50;99.90;;;;;;5032029;28;20503;-79
2023/08/15 01:48:03;;;;;;;8.50;7.80;;;22.50;99.90;;;;;;5025205;28;20515;-79
2023/08/15 01:50:28;;;;;;;7.63;7.03;;;22.50;99.90;;;;;;5035189;28;20190;-79
2023/08/15 01:52:54;;;;;;;10.00;7.57;;;22.50;99.90;;;;;;5025765;28;21704;-79
2023/08/15 01:55:19;;;;;;;7.97;7.37;;;22.50;99.90;;;;;;5029743;28;20218;-81
2023/08/15 01:57:45;;;;;;;7.97;7.33;;;22.50;99.90;;;;;;5028562;28;20300;-79
2023/08/15 02:00:11;;;;;;;8.13;7.53;;;22.50;99.90;;;;;;5025281;28;20209;-79
2023/08/15 02:02:36;;;;;;;8.90;8.20;;;22.40;99.90;;;;;;5022373;28;20217;-79
2023/08/15 02:05:02;;;;;;;8.03;7.33;;;22.30;99.90;;;;;;5026173;28;20437;-79
2023/08/15 02:07:28;;;;;;;8.70;7.90;;;22.30;99.90;;;;;;5027365;28;20669;-79
2023/08/15 02:09:54;;;;;;;7.73;7.13;;;22.30;99.90;;;;;;5027434;28;20555;-79
2023/08/15 02:12:19;;;;;;;8.17;7.57;;;22.00;99.90;;;;;;5033552;28;20456;-81
2023/08/15 02:14:45;;;;;;;8.73;8.10;;;22.40;99.90;;;;;;5028763;28;20251;-79
2023/08/15 02:17:10;;;;;;;8.20;7.50;;;22.40;99.90;;;;;;5029865;28;20284;-79
2023/08/15 02:19:36;;;;;;;8.10;7.40;;;22.40;99.90;;;;;;5021633;28;20224;-79
2023/08/15 02:22:01;;;;;;;8.53;7.83;;;22.40;99.90;;;;;;5026147;28;20289;-79
2023/08/15 02:24:28;;;;;;;8.57;7.70;;;22.40;99.90;;;;;;5028286;28;20186;-79
2023/08/15 02:26:54;;;;;;;8.50;7.70;;;22.40;99.90;;;;;;5028216;28;20213;-79
2023/08/15 02:29:19;;;;;;;9.03;8.33;;;22.40;99.90;;;;;;5031091;28;20535;-79
2023/08/15 02:31:47;;;;;;;9.33;8.40;;;22.40;99.90;;;;;;5030489;28;20335;-79
2023/08/15 02:34:16;;;;;;;8.77;8.07;;;22.40;99.90;;;;;;5031768;28;20463;-80
2023/08/15 02:36:43;;;;;;;8.87;8.27;;;22.40;99.90;;;;;;5028811;28;20481;-80
2023/08/15 02:39:08;;;;;;;8.33;7.63;;;22.40;99.90;;;;;;5023849;28;20440;-79
2023/08/15 02:41:34;;;;;;;8.70;8.10;;;22.50;99.90;;;;;;5025056;28;20476;-79
2023/08/15 02:44:00;;;;;;;8.53;7.80;;;22.50;99.90;;;;;;5025078;28;20678;-81
2023/08/15 02:46:28;;;;;;;9.00;8.20;;;22.60;99.90;;;;;;5030883;28;20271;-81
2023/08/15 02:48:53;;;;;;;8.87;8.10;;;22.50;99.90;;;;;;5026885;28;20483;-79
2023/08/15 02:51:19;;;;;;;8.63;7.93;;;22.60;99.90;;;;;;5033316;28;20449;-79
2023/08/15 02:53:44;;;;;;;9.63;8.80;;;22.60;99.90;;;;;;5025494;28;20198;-79
2023/08/15 02:56:10;;;;;;;9.50;8.60;;;22.60;99.90;;;;;;5027858;28;20300;-79
2023/08/15 02:58:35;;;;;;;9.20;8.53;;;22.60;99.90;;;;;;5027574;28;20225;-80
2023/08/15 03:01:02;;;;;;;8.77;8.07;;;22.60;99.90;;;;;;5024735;28;20223;-80
2023/08/15 03:03:29;;;;;;;9.87;8.97;;;22.60;99.90;;;;;;5028675;28;20657;-79
2023/08/15 03:06:02;;;;;;;9.00;8.17;;;22.60;99.90;;;;;;5024014;28;20457;-79
2023/08/15 03:08:29;;;;;;;8.50;7.80;;;22.60;99.90;;;;;;5027465;28;20441;-78
2023/08/15 03:10:55;;;;;;;8.90;8.20;;;22.50;99.90;;;;;;5029430;28;20448;-79
2023/08/15 03:13:21;;;;;;;8.17;7.50;;;22.60;99.90;;;;;;5026349;28;20475;-79
2023/08/15 03:15:54;;;;;;;8.10;7.40;;;22.50;99.90;;;;;;5030010;28;20520;-79
2023/08/15 03:18:19;;;;;;;8.90;8.10;;;22.50;99.90;;;;;;5026369;28;20197;-78
2023/08/15 03:20:55;;;;;;;8.17;7.40;;;22.50;99.90;;;;;;5031886;28;20471;-79
2023/08/15 03:23:20;;;;;;;8.40;7.70;;;22.40;99.90;;;;;;5024274;28;20184;-79
2023/08/15 03:25:57;;;;;;;8.60;7.73;;;22.30;99.90;;;;;;5022923;28;20467;-79
2023/08/15 03:28:23;;;;;;;9.00;8.30;;;22.30;99.90;;;;;;5028644;28;20182;-80
2023/08/15 03:30:48;;;;;;;8.40;7.70;;;22.30;99.90;;;;;;5035380;28;20459;-79
2023/08/15 03:33:15;;;;;;;9.73;7.80;;;22.30;99.90;;;;;;5033800;28;20220;-79
2023/08/15 03:35:48;;;;;;;8.80;8.00;;;22.30;99.90;;;;;;5032747;28;20209;-81
2023/08/15 03:38:18;;;;;;;8.47;7.70;;;22.30;99.90;;;;;;5033505;28;20443;-79
2023/08/15 03:40:45;;;;;;;7.95;7.18;;;21.90;99.90;;;;;;5030367;28;20502;-81
2023/08/15 03:43:11;;;;;;;8.63;7.90;;;22.20;99.90;;;;;;5029023;28;20194;-78
2023/08/15 03:45:38;;;;;;;8.47;7.77;;;22.30;99.90;;;;;;5029531;28;21096;-79
2023/08/15 03:48:07;;;;;;;8.50;7.80;;;22.20;99.90;;;;;;5031679;28;20805;-79
2023/08/15 03:50:37;;;;;;;8.43;7.70;;;22.20;99.90;;;;;;5037225;28;20449;-79
2023/08/15 03:53:03;;;;;;;8.97;8.17;;;22.20;99.90;;;;;;5030631;28;20462;-79
2023/08/15 03:55:29;;;;;;;9.75;8.88;;;22.30;99.90;;;;;;5032036;28;20460;-79
2023/08/15 03:57:54;;;;;;;9.47;8.57;;;22.10;99.90;;;;;;5031019;28;20245;-79
2023/08/15 04:00:20;;;;;;;9.13;8.30;;;22.00;99.90;;;;;;5029806;28;20846;-79
2023/08/15 04:02:46;;;;;;;8.13;7.53;;;22.10;99.90;;;;;;5022061;28;20215;-79
2023/08/15 04:05:12;;;;;;;8.67;7.87;;;22.00;99.90;;;;;;5027663;28;20448;-79
2023/08/15 04:07:41;;;;;;;8.90;8.00;;;21.90;99.90;;;;;;5024492;28;20445;-79
2023/08/15 04:10:07;;;;;;;9.73;8.60;;;22.00;99.90;;;;;;5030586;28;20484;-79
2023/08/15 04:12:36;;;;;;;9.10;8.30;;;21.90;99.90;;;;;;5026732;28;20453;-79
2023/08/15 04:15:01;;;;;;;9.05;8.38;;;22.00;99.90;;;;;;5029262;28;20565;-79
2023/08/15 04:17:27;;;;;;;8.43;7.83;;;22.00;99.90;;;;;;5034619;28;20268;-78
2023/08/15 04:19:53;;;;;;;9.00;7.97;;;22.00;99.90;;;;;;5033674;28;20220;-81
2023/08/15 04:22:19;;;;;;;9.30;8.50;;;21.90;99.90;;;;;;5019341;28;20182;-81
2023/08/15 04:24:44;;;;;;;10.60;7.77;;;22.00;99.90;;;;;;5027970;28;20432;-79
2023/08/15 04:27:10;;;;;;;9.17;8.27;;;21.90;99.90;;;;;;5022901;28;20206;-79
2023/08/15 04:29:35;;;;;;;9.40;8.60;;;21.90;99.90;;;;;;5025035;28;20174;-79
2023/08/15 04:32:01;;;;;;;8.60;7.80;;;22.00;99.90;;;;;;5021886;28;20698;-80
2023/08/15 04:34:26;;;;;;;8.73;7.83;;;22.00;99.90;;;;;;5024406;28;20273;-78
2023/08/15 04:36:52;;;;;;;8.50;7.90;;;22.10;99.90;;;;;;5023531;28;20194;-78
2023/08/15 04:39:18;;;;;;;8.80;8.10;;;22.10;99.90;;;;;;5023556;28;20178;-79
2023/08/15 04:41:44;;;;;;;8.60;7.90;;;22.00;99.90;;;;;;5023189;28;20213;-81
2023/08/15 04:44:10;;;;;;;8.20;7.60;;;22.00;99.90;;;;;;5024337;28;20456;-64
2023/08/15 04:46:36;;;;;;;7.93;7.27;;;22.40;99.90;;;;;;5030341;28;20473;-67
2023/08/15 04:49:02;;;;;;;8.53;7.63;;;22.10;99.90;;;;;;5031777;28;20454;-68
2023/08/15 04:51:28;;;;;;;7.23;6.53;;;22.30;99.90;;;;;;5028757;28;21065;-67
2023/08/15 04:53:53;;;;;;;6.70;6.10;;;22.50;99.90;;;;;;5027730;28;20189;-67
2023/08/15 04:56:19;;;;;;;6.93;6.33;;;22.60;99.90;;;;;;5031309;28;20203;-71
2023/08/15 04:58:45;;;;;;;7.97;6.77;;;22.70;99.90;;;;;;5033967;28;20186;-71
2023/08/15 05:01:10;;;;;;;7.40;6.50;;;22.80;99.90;;;;;;5023738;28;20503;-71
2023/08/15 05:03:36;;;;;;;9.47;8.50;;;22.90;99.90;;;;;;5023240;28;20292;-79
2023/08/15 05:06:02;;;;;;;9.30;8.50;;;22.90;99.90;;;;;;5047144;28;20237;-77
2023/08/15 05:08:29;;;;;;;9.33;8.33;;;22.80;99.90;;;;;;5021893;28;20220;-76
2023/08/15 05:10:54;;;;;;;9.53;8.67;;;22.90;99.90;;;;;;5026077;28;21254;-76
2023/08/15 05:13:21;;;;;;;10.30;9.40;;;23.00;99.90;;;;;;5026619;28;20216;-76
2023/08/15 05:15:46;;;;;;;9.63;8.80;;;23.10;99.90;;;;;;5029496;28;20682;-76
2023/08/15 05:18:15;;;;;;;8.93;8.17;;;23.10;99.90;;;;;;5025101;28;20488;-76
2023/08/15 05:20:41;;;;;;;9.70;8.70;;;23.10;99.90;;;;;;5023123;28;20236;-76
2023/08/15 05:23:06;;;;;;;8.50;7.80;;;23.20;99.90;;;;;;5021460;28;20812;-77
2023/08/15 05:25:32;;;;;;;8.67;6.80;;;23.30;99.90;;;;;;5029388;28;20202;-76
2023/08/15 05:27:58;;;;;;;8.40;7.57;;;23.40;99.90;;;;;;5021280;28;20660;-75
2023/08/15 05:30:24;;;;;;;8.23;7.43;;;23.40;99.90;;;;;;5017545;28;20193;-76
2023/08/15 05:32:49;;;;;;;9.03;7.67;;;23.50;99.90;;;;;;5023945;28;20186;-78
2023/08/15 05:35:15;;;;;;;8.60;7.90;;;23.50;99.90;;;;;;5024095;28;20544;-75
2023/08/15 05:37:40;;;;;;;7.83;7.13;;;23.60;99.90;;;;;;5021510;28;20198;-75
2023/08/15 05:40:07;;;;;;;8.60;7.90;;;23.70;99.90;;;;;;5017775;28;20273;-74
2023/08/15 05:42:33;;;;;;;8.70;8.00;;;23.80;99.90;;;;;;5020120;28;20256;-76
2023/08/15 05:44:58;;;;;;;8.40;7.70;;;23.80;99.90;;;;;;5021006;28;20953;-76
2023/08/15 05:47:24;;;;;;;8.47;7.67;;;23.90;99.90;;;;;;5024172;28;20754;-76
2023/08/15 05:49:49;;;;;;;8.47;7.77;;;24.10;99.90;;;;;;5023808;28;20600;-76
2023/08/15 05:52:15;;;;;;;9.50;8.80;;;24.10;99.90;;;;;;5030540;28;20679;-72
2023/08/15 05:54:40;;;;;;;7.67;6.97;;;24.10;99.90;;;;;;5022446;28;21135;-74
2023/08/15 05:57:06;;;;;;;8.67;7.97;;;24.10;99.90;;;;;;5020809;28;20965;-77
2023/08/15 05:59:32;;;;;;;9.60;8.07;;;24.20;99.90;;;;;;5023622;28;20187;-78
2023/08/15 06:01:58;;;;;;;9.37;8.40;;;24.40;99.90;;;;;;5028568;28;20219;-77
2023/08/15 06:04:24;;;;;;;8.67;7.97;;;24.40;99.90;;;;;;5024679;28;20280;-76
2023/08/15 06:06:49;;;;;;;8.67;7.70;;;24.50;99.90;;;;;;5016947;28;21085;-80
2023/08/15 06:09:15;;;;;;;8.00;7.20;;;24.60;99.90;;;;;;5024828;28;20199;-77
2023/08/15 06:11:40;;;;;;;9.57;8.67;;;24.60;99.90;;;;;;5023695;28;20186;-77
2023/08/15 06:14:06;;;;;;;9.43;8.20;;;24.70;99.90;;;;;;5018752;28;20195;-80
2023/08/15 06:16:31;;;;;;;9.53;8.73;;;24.80;99.90;;;;;;5023964;28;20257;-77
2023/08/15 06:18:57;;;;;;;10.57;7.77;;;24.80;99.90;;;;;;5023488;28;20196;-74
2023/08/15 06:21:23;;;;;;;8.67;7.90;;;24.90;99.90;;;;;;5017000;28;20232;-73
2023/08/15 06:23:48;;;;;;;8.30;7.70;;;25.00;99.90;;;;;;5022072;28;20184;-73
2023/08/15 06:26:14;;;;;;;8.83;8.03;;;25.10;99.90;;;;;;5043538;28;20197;-74
2023/08/15 06:28:39;;;;;;;8.37;7.47;;;25.30;99.90;;;;;;5020157;28;20242;-75
2023/08/15 06:31:05;;;;;;;8.30;7.60;;;25.40;99.90;;;;;;5022918;28;20671;-77
2023/08/15 06:33:31;;;;;;;8.30;7.70;;;25.70;99.90;;;;;;5023834;28;20693;-77
2023/08/15 06:35:57;;;;;;;7.60;7.00;;;25.60;99.90;;;;;;5019049;28;20476;-75
2023/08/15 06:38:22;;;;;;;17.27;14.90;;;25.80;99.90;;;;;;5021067;28;20276;-79
2023/08/15 06:40:48;;;;;;;10.57;9.60;;;25.80;99.90;;;;;;5022256;28;20220;-76
2023/08/15 06:43:14;;;;;;;9.73;8.87;;;25.80;99.90;;;;;;5023330;28;20276;-76
2023/08/15 06:45:40;;;;;;;7.70;7.10;;;25.90;99.90;;;;;;5020712;28;20555;-75
2023/08/15 06:48:05;;;;;;;8.67;7.97;;;26.00;99.90;;;;;;5019591;28;20185;-75
2023/08/15 06:50:32;;;;;;;8.20;7.50;;;26.30;99.90;;;;;;5022601;28;20200;-76
2023/08/15 06:52:57;;;;;;;8.40;7.80;;;26.50;99.90;;;;;;5019059;28;20441;-77
2023/08/15 06:55:23;;;;;;;8.00;7.40;;;26.70;99.90;;;;;;5019626;28;20473;-76
2023/08/15 06:57:49;;;;;;;8.00;7.40;;;27.10;99.90;;;;;;5021755;28;20550;-77
2023/08/15 07:00:16;;;;;;;9.87;9.07;;;27.40;99.90;;;;;;5018680;28;20465;-78
2023/08/15 07:02:42;;;;;;;14.90;8.77;;;27.30;99.90;;;;;;5027720;28;20459;-75
2023/08/15 07:05:10;;;;;;;8.63;8.03;;;27.00;99.90;;;;;;5030491;28;20436;-78
2023/08/15 07:07:37;;;;;;;13.47;12.17;;;27.30;99.90;;;;;;5027999;28;20636;-77
2023/08/15 07:10:06;;;;;;;8.60;7.90;;;28.00;99.90;;;;;;5024884;28;20963;-75
2023/08/15 07:12:32;;;;;;;8.53;7.93;;;28.90;99.90;;;;;;5026074;28;20451;-76
2023/08/15 07:14:58;;;;;;;7.90;7.20;;;29.40;99.90;;;;;;5020492;28;20463;-75
2023/08/15 07:17:23;;;;;;;8.43;7.60;;;29.40;99.90;;;;;;5025485;28;20458;-75
2023/08/15 07:19:49;;;;;;;8.90;8.00;;;30.20;99.20;;;;;;5027433;28;20224;-77
2023/08/15 07:22:14;;;;;;;7.50;6.90;;;32.20;96.20;;;;;;5024803;28;20185;-75
2023/08/15 07:24:40;;;;;;;7.00;6.43;;;34.70;91.80;;;;;;5026909;28;20220;-75
2023/08/15 07:27:05;;;;;;;8.10;7.30;;;36.20;84.10;;;;;;5026682;28;20740;-75
2023/08/15 07:29:31;;;;;;;10.80;6.80;;;35.40;79.70;;;;;;5028658;28;20292;-76
2023/08/15 07:31:57;;;;;;;7.53;6.90;;;35.60;79.60;;;;;;5021670;28;20178;-75
2023/08/15 07:34:22;;;;;;;7.67;6.97;;;37.50;77.70;;;;;;5022136;28;20179;-76
2023/08/15 07:36:49;;;;;;;12.50;11.40;;;39.70;68.00;;;;;;5022793;28;20198;-76
2023/08/15 07:39:14;;;;;;;6.10;5.70;;;41.00;63.70;;;;;;5031318;28;20209;-77
2023/08/15 07:41:41;;;;;;;8.57;7.97;;;41.60;56.60;;;;;;5034708;28;20625;-77
2023/08/15 07:44:07;;;;;;;7.20;6.70;;;41.50;56.70;;;;;;5026192;28;20178;-77
2023/08/15 07:46:33;;;;;;;7.13;6.43;;;43.20;53.70;;;;;;5034107;28;20474;-75
2023/08/15 07:48:58;;;;;;;7.10;6.40;;;44.40;50.60;;;;;;5029423;28;20445;-77
2023/08/15 07:51:24;;;;;;;8.00;7.33;;;44.10;48.70;;;;;;5030922;28;21531;-76
2023/08/15 07:53:50;;;;;;;7.30;6.70;;;44.50;48.80;;;;;;5036439;28;20194;-77
2023/08/15 07:56:15;;;;;;;7.90;7.20;;;45.60;46.90;;;;;;5024337;28;20211;-77
2023/08/15 07:58:41;;;;;;;6.90;6.30;;;44.40;46.80;;;;;;5024908;28;20194;-78
2023/08/15 08:01:06;;;;;;;6.80;6.30;;;42.20;47.90;;;;;;5024616;28;20213;-75
2023/08/15 08:03:32;;;;;;;6.70;6.10;;;40.20;52.20;;;;;;5030422;28;20191;-75
2023/08/15 08:05:58;;;;;;;6.80;6.30;;;38.50;54.50;;;;;;5020701;28;20695;-79
2023/08/15 08:08:24;;;;;;;6.60;6.00;;;37.10;58.10;;;;;;5028233;28;20186;-76
2023/08/15 08:10:50;;;;;;;7.00;6.37;;;36.20;60.50;;;;;;5028116;28;21070;-78
2023/08/15 08:13:17;;;;;;;6.50;6.00;;;35.60;64.40;;;;;;5027432;28;20229;-78
2023/08/15 08:15:43;;;;;;;9.00;8.27;;;35.90;62.80;;;;;;5024121;28;20210;-77
2023/08/15 08:18:08;;;;;;;6.83;6.23;;;35.30;64.80;;;;;;5025790;28;20457;-81
2023/08/15 08:20:34;;;;;;;5.77;5.23;;;35.90;64.90;;;;;;5025143;28;20842;-75
2023/08/15 08:23:00;;;;;;;7.90;7.20;;;37.40;62.30;;;;;;5020492;28;20652;-75
2023/08/15 08:25:27;;;;;;;8.30;7.27;;;38.70;59.10;;;;;;5019628;28;20252;-76
2023/08/15 08:27:52;;;;;;;6.63;6.23;;;39.40;56.80;;;;;;5022501;28;20186;-76
2023/08/15 08:30:19;;;;;;;8.60;7.90;;;39.90;56.70;;;;;;5025227;28;20456;-77
2023/08/15 08:32:45;;;;;;;6.50;6.10;;;40.00;54.60;;;;;;5030805;28;20898;-77
2023/08/15 08:35:15;;;;;;;6.83;6.27;;;39.00;55.50;;;;;;5030326;28;20476;-79
2023/08/15 08:37:41;;;;;;;6.03;5.40;;;38.10;57.60;;;;;;5018134;28;20449;-80
2023/08/15 08:40:08;;;;;;;6.00;5.60;;;37.20;58.80;;;;;;5032502;28;20539;-80
2023/08/15 08:42:37;;;;;;;6.90;6.40;;;36.40;61.40;;;;;;5036249;28;20445;-78
2023/08/15 08:45:03;;;;;;;6.70;6.13;;;35.90;62.70;;;;;;5032680;28;20482;-78
2023/08/15 08:47:30;;;;;;;6.90;6.40;;;36.60;63.50;;;;;;5021047;28;20445;-78
2023/08/15 08:49:59;;;;;;;7.40;6.00;;;38.30;60.20;;;;;;5030070;28;20937;-77
2023/08/15 08:52:27;;;;;;;6.30;5.90;;;38.30;58.30;;;;;;5019418;28;20446;-78
2023/08/15 08:54:53;;;;;;;7.70;7.00;;;39.70;56.70;;;;;;5025376;28;20437;-77
2023/08/15 08:57:20;;;;;;;7.43;6.73;;;37.80;57.20;;;;;;5023238;28;21058;-77
2023/08/15 08:59:46;;;;;;;7.03;6.33;;;36.90;60.10;;;;;;5025501;28;20789;-78
2023/08/15 09:02:21;;;;;;;6.10;5.70;;;35.20;65.00;;;;;;5032068;28;20450;-77
2023/08/15 09:04:48;;;;;;;6.70;6.00;;;34.50;66.80;;;;;;5028604;28;20506;-77
2023/08/15 09:07:16;;;;;;;7.23;6.63;;;34.20;68.60;;;;;;5029676;28;21010;-79
2023/08/15 09:09:41;;;;;;;6.47;5.87;;;33.80;70.60;;;;;;5029706;28;20444;-76
2023/08/15 09:12:07;;;;;;;6.73;6.13;;;33.40;69.70;;;;;;5033836;28;20596;-78
2023/08/15 09:14:38;;;;;;;10.80;6.40;;;33.00;71.70;;;;;;5024470;28;20193;-78
2023/08/15 09:17:04;;;;;;;6.10;5.60;;;32.80;73.80;;;;;;5030098;28;20977;-77
2023/08/15 09:19:32;;;;;;;6.13;5.63;;;32.90;73.50;;;;;;5020291;28;20460;-78
2023/08/15 09:21:57;;;;;;;6.33;5.50;;;32.90;73.30;;;;;;5024985;28;20216;-77
2023/08/15 09:24:27;;;;;;;7.00;6.40;;;33.20;73.80;;;;;;5026750;28;20824;-79
2023/08/15 09:26:52;;;;;;;4.57;4.17;;;33.70;72.60;;;;;;5020699;28;20216;-77
2023/08/15 09:29:18;;;;;;;4.37;3.97;;;34.10;62.60;;;;;;5027093;28;20531;-77
2023/08/15 09:31:44;;;;;;;6.63;4.63;;;34.30;60.10;;;;;;5019293;28;20217;-79
2023/08/15 09:34:10;;;;;;;4.77;3.60;;;34.20;58.90;;;;;;5022373;28;20232;-74
2023/08/15 09:36:35;;;;;;;7.87;4.20;;;34.10;58.00;;;;;;5015632;28;20857;-76
2023/08/15 09:39:06;;;;;;;3.57;3.27;;;34.00;56.90;;;;;;5022319;28;20536;-76
2023/08/15 09:41:31;;;;;;;3.43;3.13;;;33.50;55.50;;;;;;5022990;28;20209;-76
2023/08/15 09:43:57;;;;;;;3.67;3.37;;;33.00;55.60;;;;;;5023567;28;20517;-76
2023/08/15 09:46:23;;;;;;;3.87;3.50;;;32.60;56.30;;;;;;5029937;28;20237;-80
2023/08/15 09:48:51;;;;;;;5.23;3.30;;;32.50;57.00;;;;;;5017121;28;20190;-79
2023/08/15 09:51:18;;;;;;;4.50;3.33;;;32.30;57.50;;;;;;5016307;28;20453;-76
2023/08/15 09:53:45;;;;;;;6.03;3.63;;;32.20;56.40;;;;;;5030389;28;21012;-76
2023/08/15 09:56:12;;;;;;;3.20;3.00;;;32.20;56.80;;;;;;5021498;28;20471;-78
2023/08/15 09:58:38;;;;;;;5.43;3.17;;;32.30;56.60;;;;;;5025089;28;20458;-78
2023/08/15 10:01:07;;;;;;;3.47;3.17;;;32.10;56.40;;;;;;5023509;28;20613;-77
2023/08/15 10:03:38;;;;;;;4.43;2.70;;;31.80;56.90;;;;;;5019244;28;20442;-76
2023/08/15 10:06:07;;;;;;;4.23;3.70;;;31.90;57.40;;;;;;5023725;28;20473;-75
2023/08/15 10:08:37;;;;;;;5.87;3.10;;;31.90;57.70;;;;;;5025006;28;20475;-72
2023/08/15 10:11:06;;;;;;;6.10;5.50;;;31.90;57.70;;;;;;5026435;28;20588;-74
2023/08/15 10:13:35;;;;;;;5.33;4.30;;;31.80;58.40;;;;;;5025999;28;20964;-74
2023/08/15 10:16:03;;;;;;;5.10;3.83;;;31.90;59.10;;;;;;5027252;28;20509;-74
2023/08/15 10:18:29;;;;;;;3.87;3.43;;;31.80;59.20;;;;;;5026574;28;20463;-74
2023/08/15 10:20:56;;;;;;;3.60;3.30;;;31.70;59.70;;;;;;5020890;28;20849;-73
2023/08/15 10:23:33;;;;;;;6.40;4.17;;;31.70;60.10;;;;;;5028314;28;20196;-74
2023/08/15 10:26:00;;;;;;;5.23;3.70;;;31.90;61.20;;;;;;5027194;28;20499;-74
2023/08/15 10:28:30;;;;;;;4.53;3.53;;;31.80;60.00;;;;;;5019124;28;20976;-72
2023/08/15 10:30:56;;;;;;;3.73;3.30;;;31.60;61.30;;;;;;5021419;28;20453;-72
2023/08/15 10:33:28;;;;;;;4.60;3.23;;;31.40;62.20;;;;;;5021878;28;20453;-72
2023/08/15 10:35:57;;;;;;;7.57;3.50;;;31.10;61.50;;;;;;5024470;28;20475;-70
2023/08/15 10:38:26;;;;;;;3.77;3.33;;;30.80;63.10;;;;;;5020663;28;20456;-76
2023/08/15 10:41:00;;;;;;;5.17;3.60;;;30.50;63.10;;;;;;5023439;28;20475;-75
2023/08/15 10:43:28;;;;;;;6.50;3.97;;;30.50;65.10;;;;;;5017775;28;20511;-69
2023/08/15 10:45:59;;;;;;;6.03;3.40;;;30.30;63.60;;;;;;5022578;28;20471;-70
2023/08/15 10:48:43;;;;;;;4.93;3.53;;;30.20;64.00;;;;;;5023353;28;20453;-75
2023/08/15 10:51:23;;;;;;;9.27;8.37;;;30.30;64.30;;;;;;5020418;28;20852;-72
2023/08/15 10:53:54;;;;;;;3.43;3.00;;;30.80;64.80;;;;;;5020884;28;21044;-72
2023/08/15 10:56:22;;;;;;;3.87;3.43;;;31.10;62.50;;;;;;5024071;28;20468;-73
2023/08/15 10:58:48;;;;;;;3.80;3.10;;;31.20;61.90;;;;;;5022299;28;20449;-72
2023/08/15 11:01:18;;;;;;;3.70;3.10;;;31.20;60.40;;;;;;5027876;28;20912;-72
2023/08/15 11:03:46;;;;;;;4.13;2.63;;;31.20;58.50;;;;;;5023959;28;20453;-72
2023/08/15 11:06:13;;;;;;;3.43;3.03;;;31.30;56.20;;;;;;5027848;28;20456;-73
2023/08/15 11:08:55;;;;;;;2.90;2.70;;;31.40;56.50;;;;;;5019077;28;21056;-72
2023/08/15 11:11:21;;;;;;;2.57;2.37;;;31.30;56.70;;;;;;5023571;28;20457;-72
2023/08/15 11:13:49;;;;;;;5.23;3.07;;;31.20;56.30;;;;;;5023318;28;20960;-72
2023/08/15 11:16:17;;;;;;;4.00;3.10;;;31.10;57.10;;;;;;5019611;28;21100;-73
2023/08/15 11:18:43;;;;;;;5.50;3.47;;;31.00;57.90;;;;;;5022482;28;21083;-71
2023/08/15 11:21:11;;;;;;;3.20;3.00;;;31.00;57.70;;;;;;5024171;28;20984;-73
2023/08/15 11:23:38;;;;;;;3.60;3.10;;;31.00;58.20;;;;;;5024683;28;20495;-73
2023/08/15 11:26:09;;;;;;;3.63;3.33;;;31.10;58.90;;;;;;5019598;28;20896;-73
2023/08/15 11:28:36;;;;;;;3.13;2.83;;;31.20;58.70;;;;;;5027639;28;20472;-73
2023/08/15 11:31:07;;;;;;;3.13;2.93;;;31.20;58.60;;;;;;5027420;28;21019;-73
2023/08/15 11:33:33;;;;;;;3.63;3.03;;;31.00;58.00;;;;;;5026922;28;20454;-71
2023/08/15 11:36:00;;;;;;;5.23;3.40;;;31.30;59.10;;;;;;5021961;28;20842;-71
2023/08/15 11:38:32;;;;;;;4.73;3.20;;;31.20;59.40;;;;;;5025109;28;20194;-71
2023/08/15 11:40:59;;;;;;;5.00;2.70;;;31.20;59.50;;;;;;5021479;28;20523;-71
2023/08/15 11:43:28;;;;;;;7.40;6.33;;;31.20;59.70;;;;;;5023859;28;20473;-70
2023/08/15 11:45:54;;;;;;;3.57;3.27;;;31.40;59.70;;;;;;5023262;28;20472;-70
2023/08/15 11:48:20;;;;;;;3.53;3.23;;;31.30;59.60;;;;;;5024079;28;20443;-70
2023/08/15 11:50:46;;;;;;;3.30;3.00;;;31.20;59.70;;;;;;5031213;28;20253;-71
2023/08/15 11:53:16;;;;;;;5.00;3.57;;;31.10;60.70;;;;;;5032552;28;20452;-72
2023/08/15 11:55:43;;;;;;;5.10;4.70;;;31.10;60.60;;;;;;5033136;28;20491;-72
2023/08/15 11:58:29;;;;;;;3.60;3.30;;;31.30;61.80;;;;;;5028872;28;20542;-72
2023/08/15 12:01:14;;;;;;;5.03;3.93;;;31.70;61.10;;;;;;5024039;28;20966;-72
2023/08/15 12:03:40;;;;;;;6.43;4.63;;;31.80;62.00;;;;;;5029557;28;20449;-72
2023/08/15 12:06:08;;;;;;;4.90;4.50;;;32.10;62.10;;;;;;5033064;28;20510;-71
2023/08/15 12:08:34;;;;;;;6.70;3.90;;;32.20;62.90;;;;;;5024397;28;20193;-72
2023/08/15 12:11:06;;;;;;;4.30;4.00;;;32.20;61.20;;;;;;5031164;28;20452;-72
2023/08/15 12:13:39;;;;;;;4.67;4.37;;;32.10;61.90;;;;;;5028916;28;20205;-72
2023/08/15 12:16:06;;;;;;;5.67;5.17;;;32.10;64.10;;;;;;5031533;28;20474;-70
2023/08/15 12:18:32;;;;;;;6.83;5.00;;;31.90;67.20;;;;;;5030337;28;20459;-70
2023/08/15 12:20:58;;;;;;;7.03;5.60;;;31.80;69.00;;;;;;5034294;28;20479;-71
2023/08/15 12:23:25;;;;;;;6.77;5.30;;;31.80;70.10;;;;;;5025344;28;21006;-71
2023/08/15 12:25:51;;;;;;;6.73;6.13;;;31.70;69.40;;;;;;5026419;28;20490;-71
2023/08/15 12:28:18;;;;;;;7.20;5.47;;;31.50;70.50;;;;;;5031404;28;20491;-71
2023/08/15 12:30:44;;;;;;;6.93;5.77;;;31.50;71.10;;;;;;5030525;28;20193;-72
2023/08/15 12:33:11;;;;;;;9.40;5.80;;;31.50;71.70;;;;;;5024348;28;21095;-71
2023/08/15 12:35:37;;;;;;;5.87;5.40;;;31.50;71.70;;;;;;5034997;28;20836;-71
2023/08/15 12:38:03;;;;;;;7.13;6.53;;;31.50;71.90;;;;;;5026334;28;20492;-72
2023/08/15 12:40:28;;;;;;;6.97;4.87;;;31.40;70.20;;;;;;5028164;28;20472;-71
2023/08/15 12:42:54;;;;;;;6.37;4.93;;;31.40;69.00;;;;;;5028837;28;20463;-72
2023/08/15 12:45:20;;;;;;;5.60;4.50;;;31.40;68.40;;;;;;5030580;28;20741;-73
2023/08/15 12:47:45;;;;;;;8.43;5.40;;;31.40;68.80;;;;;;5024268;28;20238;-72